Terminal Aerodrome Forecast
Issued by NWS Sterling, VA

Current Version | Previous Version | Graphics & Text | Print | Product List | Glossary On
Versions: 1 2 3 4 5 6 7 8 9 10 11 12 13 14 15 16 17 18 19 20 21 22 23
000
FTUS41 KLWX 060212 AAA
TAFDCA
TAF AMD
KDCA 060212Z 0602/0624 15005KT P6SM SCT020 BKN050
     FM060300 15005KT 5SM -SHRA BKN035 OVC050
     FM060700 10006KT 5SM -SHRA SCT010 BKN025
     FM061300 11006KT P6SM -SHRA SCT008 OVC045
     FM061900 12010KT P6SM -SHRA BKN090=

USA.gov is the U.S. government's official web portal to all federal, state and local government web resources and services.